createdAt,value
2022-08-16T00:01:33.751Z,21.25
2022-08-16T00:04:05.146Z,23.80
2022-08-16T00:06:36.555Z,26.70
2022-08-16T00:09:10.831Z,27.63
2022-08-16T00:11:43.017Z,22.05
2022-08-16T00:14:17.433Z,19.90
2022-08-16T00:17:06.600Z,22.55
2022-08-16T00:19:41.746Z,21.15
2022-08-16T00:22:15.195Z,20.58
2022-08-16T00:24:51.407Z,20.98
2022-08-16T00:27:21.266Z,18.10
2022-08-16T00:30:00.486Z,17.10
2022-08-16T00:32:43.071Z,17.88
2022-08-16T00:35:17.289Z,15.93
2022-08-16T00:37:57.182Z,13.40
2022-08-16T00:40:50.939Z,13.43
2022-08-16T00:43:43.258Z,13.85
2022-08-16T00:46:34.641Z,23.20
2022-08-16T00:49:17.352Z,32.00
2022-08-16T00:51:55.649Z,33.75
2022-08-16T00:54:28.829Z,31.27
2022-08-16T00:57:00.899Z,29.15
2022-08-16T00:59:35.096Z,23.10
2022-08-16T01:02:31.182Z,19.48
2022-08-16T01:05:09.094Z,17.75
2022-08-16T01:07:51.062Z,15.75
2022-08-16T01:10:31.553Z,13.93
2022-08-16T01:13:26.669Z,12.77
2022-08-16T01:16:03.550Z,9.95
2022-08-16T01:19:07.657Z,10.20
2022-08-16T01:22:48.474Z,10.18
2022-08-16T01:24:56.710Z,11.80
2022-08-16T01:27:34.562Z,11.40
2022-08-16T01:30:19.941Z,11.40
2022-08-16T01:33:02.954Z,11.35
2022-08-16T01:35:47.184Z,11.93
2022-08-16T01:38:33.702Z,12.18
2022-08-16T01:41:12.487Z,10.40
2022-08-16T01:43:54.309Z,11.93
2022-08-16T01:46:39.117Z,12.07
2022-08-16T01:49:24.433Z,12.27
2022-08-16T01:52:29.290Z,12.80
2022-08-16T01:55:14.543Z,12.23
2022-08-16T01:57:53.557Z,12.75
2022-08-16T02:00:29.104Z,13.38
2022-08-16T02:03:02.541Z,15.18
2022-08-16T02:05:32.206Z,19.40
2022-08-16T02:08:06.629Z,21.75
2022-08-16T02:10:39.460Z,23.00
2022-08-16T02:13:11.219Z,31.27
2022-08-16T02:15:43.769Z,28.17
2022-08-16T02:18:18.771Z,29.33
2022-08-16T02:20:53.396Z,30.10
2022-08-16T02:23:24.676Z,29.05
2022-08-16T02:25:54.808Z,35.97
2022-08-16T02:28:27.266Z,30.38
2022-08-16T02:30:59.323Z,23.50
2022-08-16T02:33:44.582Z,20.17
2022-08-16T02:36:42.310Z,20.77
2022-08-16T02:39:22.468Z,20.42
2022-08-16T02:44:26.999Z,23.52
2022-08-16T02:46:59.256Z,27.13
2022-08-16T02:49:59.146Z,22.85
2022-08-16T02:52:25.017Z,21.45
2022-08-16T02:55:06.628Z,22.50
2022-08-16T02:57:42.323Z,14.98
2022-08-16T03:00:33.890Z,14.63
2022-08-16T03:03:10.587Z,17.05
2022-08-16T03:05:40.465Z,16.25
2022-08-16T03:08:50.616Z,16.08
2022-08-16T03:11:03.504Z,19.25
2022-08-16T03:13:40.029Z,20.08
2022-08-16T03:16:38.160Z,18.73
2022-08-16T03:19:03.538Z,17.40
2022-08-16T03:21:37.831Z,16.55
2022-08-16T03:24:29.215Z,16.13
2022-08-16T03:27:03.247Z,18.45
2022-08-16T03:29:35.063Z,22.35
2022-08-16T03:32:07.369Z,24.48
2022-08-16T03:34:37.149Z,27.40
2022-08-16T03:37:06.715Z,30.40
2022-08-16T03:39:42.942Z,32.65
2022-08-16T03:42:20.599Z,37.45
2022-08-16T03:45:03.430Z,34.25
2022-08-16T03:47:36.902Z,33.00
2022-08-16T03:50:25.670Z,31.98
2022-08-16T03:53:02.176Z,32.08
2022-08-16T03:55:45.577Z,29.38
2022-08-16T03:58:16.592Z,28.75
2022-08-16T04:00:46.749Z,27.00
2022-08-16T04:03:26.671Z,27.75
2022-08-16T04:06:00.293Z,28.98
2022-08-16T04:08:34.740Z,20.08
2022-08-16T04:11:05.047Z,19.63
2022-08-16T04:13:59.187Z,19.63
2022-08-16T04:16:28.280Z,19.75
2022-08-16T04:19:13.929Z,17.27
2022-08-16T04:21:46.154Z,20.27
2022-08-16T04:24:28.610Z,19.02
2022-08-16T04:27:00.164Z,17.05
2022-08-16T04:29:43.790Z,20.88
2022-08-16T04:32:19.596Z,17.65
2022-08-16T04:34:53.972Z,15.32
2022-08-16T04:37:25.577Z,18.15
2022-08-16T04:40:05.665Z,18.77
2022-08-16T04:42:38.256Z,17.45
2022-08-16T05:08:28.838Z,15.15
2022-08-16T05:11:08.319Z,15.05
2022-08-16T05:13:42.673Z,11.38
2022-08-16T05:16:29.898Z,13.05
2022-08-16T05:19:13.169Z,12.52
2022-08-16T05:22:05.784Z,13.57
2022-08-16T05:24:39.103Z,16.38
2022-08-16T05:27:11.436Z,15.50
2022-08-16T05:30:00.165Z,13.07
2022-08-16T05:32:36.509Z,10.88
2022-08-16T05:58:48.208Z,16.13
2022-08-16T06:01:18.343Z,15.25
2022-08-16T06:03:51.800Z,17.52
2022-08-16T06:06:29.112Z,22.25
2022-08-16T06:09:00.166Z,20.80
2022-08-16T06:11:30.596Z,16.05
2022-08-16T06:14:04.171Z,13.07
2022-08-16T06:16:39.685Z,13.43
2022-08-16T06:19:24.187Z,13.25
2022-08-16T06:22:02.354Z,14.35
2022-08-16T06:24:54.745Z,13.85
2022-08-16T06:27:23.265Z,12.25
2022-08-16T06:29:52.875Z,15.60
2022-08-16T06:32:27.778Z,13.63
2022-08-16T06:35:03.020Z,16.13
2022-08-16T06:37:37.394Z,12.32
2022-08-16T06:40:12.960Z,22.83
2022-08-16T06:42:57.310Z,20.90
2022-08-16T06:45:51.483Z,13.95
2022-08-16T06:48:33.010Z,13.77
2022-08-16T06:51:07.353Z,13.55
2022-08-16T06:53:37.759Z,13.50
2022-08-16T06:56:14.495Z,10.95
2022-08-16T06:59:11.976Z,11.75
2022-08-16T07:01:54.054Z,11.85
2022-08-16T07:04:32.772Z,13.40
2022-08-16T07:07:19.848Z,12.50
2022-08-16T07:09:51.338Z,12.00
2022-08-16T07:12:47.178Z,8.70
2022-08-16T07:15:17.021Z,10.20
2022-08-16T07:17:50.826Z,9.30
2022-08-16T07:20:35.057Z,8.75
2022-08-16T07:23:13.610Z,9.18
2022-08-16T07:25:52.857Z,8.60
2022-08-16T07:28:24.351Z,9.80
2022-08-16T07:30:57.354Z,7.07
2022-08-16T07:33:53.501Z,5.93
2022-08-16T07:36:33.903Z,5.03
2022-08-16T07:39:04.722Z,5.82
2022-08-16T07:41:41.312Z,5.50
2022-08-16T07:44:16.366Z,5.53
2022-08-16T07:46:55.438Z,5.18
2022-08-16T07:49:26.655Z,6.45
2022-08-16T07:52:18.937Z,5.85
2022-08-16T07:54:53.307Z,5.90
2022-08-16T07:57:24.735Z,6.30
2022-08-16T07:59:57.251Z,4.97
2022-08-16T08:02:28.066Z,6.03
2022-08-16T08:04:59.158Z,5.63
2022-08-16T08:07:33.048Z,5.43
2022-08-16T08:10:10.935Z,4.53
2022-08-16T08:12:42.075Z,4.70
2022-08-16T08:15:14.795Z,3.92
2022-08-16T08:17:55.767Z,4.55
2022-08-16T08:20:35.312Z,4.45
2022-08-16T08:23:07.746Z,5.15
2022-08-16T08:25:54.917Z,4.57
2022-08-16T08:28:30.287Z,5.03
2022-08-16T08:31:04.703Z,5.65
2022-08-16T08:33:43.828Z,5.65
2022-08-16T08:36:25.198Z,5.93
2022-08-16T08:39:12.687Z,4.30
2022-08-16T08:41:46.550Z,5.40
2022-08-16T08:44:28.041Z,4.95
2022-08-16T08:47:12.081Z,4.75
2022-08-16T08:49:50.584Z,4.30
2022-08-16T08:52:34.110Z,4.80
2022-08-16T08:55:10.942Z,4.70
2022-08-16T08:57:44.422Z,5.18
2022-08-16T09:00:51.131Z,4.82
2022-08-16T09:03:22.809Z,5.28
2022-08-16T09:05:52.322Z,6.90
2022-08-16T09:08:26.378Z,6.75
2022-08-16T09:11:03.188Z,6.70
2022-08-16T09:13:36.845Z,7.57
2022-08-16T09:17:02.751Z,6.78
2022-08-16T09:21:41.520Z,6.45
2022-08-16T09:24:11.976Z,6.47
2022-08-16T09:27:20.207Z,6.53
2022-08-16T09:29:59.913Z,8.40
2022-08-16T09:32:33.213Z,7.22
2022-08-16T09:35:03.363Z,7.30
2022-08-16T09:37:36.833Z,7.85
2022-08-16T09:40:33.109Z,8.55
2022-08-16T09:42:59.850Z,8.75
2022-08-16T09:45:29.835Z,8.35
2022-08-16T09:47:59.548Z,8.50
2022-08-16T09:50:38.177Z,7.80
2022-08-16T09:53:16.781Z,7.05
2022-08-16T09:55:49.602Z,7.70
2022-08-16T09:58:41.971Z,8.52
2022-08-16T10:01:11.255Z,8.32
2022-08-16T10:04:02.708Z,7.90
2022-08-16T10:06:33.195Z,7.30
2022-08-16T10:09:11.245Z,7.90
2022-08-16T10:12:11.436Z,7.38
2022-08-16T10:14:48.988Z,7.07
2022-08-16T10:17:18.435Z,6.53
2022-08-16T10:19:50.361Z,7.13
2022-08-16T10:22:22.982Z,7.65
2022-08-16T10:24:55.951Z,7.90
2022-08-16T10:27:46.228Z,7.78
2022-08-16T10:30:25.344Z,7.57
2022-08-16T10:32:57.754Z,7.32
2022-08-16T10:35:32.562Z,6.90
2022-08-16T10:38:02.761Z,8.43
2022-08-16T10:40:36.340Z,7.57
2022-08-16T10:43:08.386Z,6.35
2022-08-16T10:46:00.905Z,6.90
2022-08-16T10:48:31.377Z,7.22
2022-08-16T10:51:01.596Z,6.95
2022-08-16T10:53:34.107Z,6.03
2022-08-16T10:56:52.435Z,6.03
2022-08-16T11:07:45.514Z,4.85
2022-08-16T11:13:58.274Z,5.22
2022-08-16T11:19:04.056Z,5.10
2022-08-16T11:22:22.829Z,5.10
2022-08-16T11:24:40.155Z,5.35
2022-08-16T11:27:19.610Z,6.60
2022-08-16T11:29:53.538Z,6.95
2022-08-16T11:32:31.864Z,10.80
2022-08-16T11:35:13.927Z,8.10
2022-08-16T11:38:47.511Z,6.35
2022-08-16T11:41:07.387Z,6.88
2022-08-16T11:43:39.055Z,7.53
2022-08-16T11:46:44.468Z,6.60
2022-08-16T11:49:00.676Z,7.57
2022-08-16T11:51:30.858Z,6.70
2022-08-16T11:54:00.052Z,6.50
2022-08-16T11:56:51.784Z,6.68
2022-08-16T11:59:20.365Z,10.05
2022-08-16T12:01:59.511Z,9.63
2022-08-16T12:04:30.433Z,12.40
2022-08-16T12:06:59.729Z,10.35
2022-08-16T12:09:31.499Z,10.27
2022-08-16T12:12:02.979Z,11.20
2022-08-16T12:14:59.275Z,13.48
2022-08-16T12:17:50.309Z,11.50
2022-08-16T12:20:45.728Z,13.43
2022-08-16T12:23:37.195Z,18.15
2022-08-16T12:26:27.661Z,16.48
2022-08-16T12:29:17.945Z,13.35
2022-08-16T12:32:26.553Z,13.25
2022-08-16T12:35:21.079Z,13.60
2022-08-16T12:38:41.285Z,11.05
2022-08-16T12:41:24.470Z,11.20
2022-08-16T12:44:19.927Z,10.35
2022-08-16T12:47:29.189Z,9.88
2022-08-16T12:50:19.473Z,9.35
2022-08-16T12:53:09.674Z,8.93
2022-08-16T12:56:00.953Z,9.77
2022-08-16T12:58:52.153Z,8.32
2022-08-16T13:01:43.441Z,9.63
2022-08-16T13:04:34.453Z,9.45
2022-08-16T13:07:27.164Z,9.85
2022-08-16T13:10:21.019Z,9.55
2022-08-16T13:13:27.391Z,8.57
2022-08-16T13:16:20.783Z,10.05
2022-08-16T13:19:14.617Z,9.77
2022-08-16T13:22:05.123Z,9.60
2022-08-16T13:24:55.815Z,9.73
2022-08-16T13:28:02.639Z,9.02
2022-08-16T13:30:57.816Z,9.25
2022-08-16T13:33:47.753Z,9.40
2022-08-16T13:36:48.435Z,9.48
2022-08-16T13:39:43.169Z,8.57
2022-08-16T13:42:33.302Z,10.25
2022-08-16T13:45:33.152Z,8.18
2022-08-16T13:48:43.354Z,9.23
2022-08-16T13:51:34.720Z,9.38
2022-08-16T13:54:27.458Z,9.38
2022-08-16T13:57:20.973Z,9.20
2022-08-16T14:00:30.791Z,9.80
2022-08-16T14:03:22.694Z,9.02
2022-08-16T14:06:15.490Z,8.93
2022-08-16T14:09:08.138Z,9.43
2022-08-16T14:12:04.437Z,9.73
2022-08-16T14:15:12.781Z,9.73
2022-08-16T14:18:20.189Z,9.85
2022-08-16T14:21:10.365Z,8.95
2022-08-16T14:24:04.238Z,9.55
2022-08-16T14:27:06.338Z,10.85
2022-08-16T14:29:57.022Z,10.52
2022-08-16T14:32:51.175Z,10.18
2022-08-16T14:35:48.987Z,10.48
2022-08-16T14:38:42.445Z,10.38
2022-08-16T14:41:33.680Z,10.80
2022-08-16T14:44:26.082Z,10.38
2022-08-16T14:47:17.810Z,12.32
2022-08-16T14:50:12.882Z,11.15
2022-08-16T14:53:12.451Z,12.10
2022-08-16T14:56:02.842Z,13.20
2022-08-16T14:58:54.521Z,14.05
2022-08-16T15:01:58.760Z,13.57
2022-08-16T15:04:51.389Z,13.60
2022-08-16T15:07:40.971Z,13.45
2022-08-16T15:10:32.217Z,13.00
2022-08-16T15:13:22.992Z,12.23
2022-08-16T15:16:14.311Z,12.30
2022-08-16T15:19:05.055Z,11.73
2022-08-16T15:21:54.969Z,11.90
2022-08-16T15:24:44.761Z,11.90
2022-08-16T15:27:38.080Z,11.55
2022-08-16T15:30:59.899Z,11.90
2022-08-16T15:33:48.580Z,11.55
2022-08-16T15:36:42.407Z,10.85
2022-08-16T15:39:38.867Z,11.50
2022-08-16T15:42:29.617Z,11.07
2022-08-16T15:45:43.982Z,12.13
2022-08-16T15:48:34.561Z,12.25
2022-08-16T15:51:30.650Z,11.80
2022-08-16T15:54:30.377Z,15.38
2022-08-16T15:57:21.238Z,14.95
2022-08-16T16:00:15.242Z,12.85
2022-08-16T16:03:09.641Z,13.98
2022-08-16T16:06:02.298Z,13.95
2022-08-16T16:08:51.821Z,11.90
2022-08-16T16:11:41.914Z,12.60
2022-08-16T16:14:33.367Z,11.95
2022-08-16T16:17:22.888Z,11.95
2022-08-16T16:20:14.897Z,12.95
2022-08-16T16:23:28.474Z,11.40
2022-08-16T16:26:19.949Z,11.73
2022-08-16T16:29:15.005Z,11.98
2022-08-16T16:32:11.753Z,11.98
2022-08-16T16:35:12.510Z,12.15
2022-08-16T16:38:07.982Z,12.00
2022-08-16T16:41:03.775Z,12.30
2022-08-16T16:44:00.120Z,12.27
2022-08-16T16:46:56.760Z,11.68
2022-08-16T16:49:51.272Z,11.98
2022-08-16T16:52:45.222Z,12.55
2022-08-16T16:55:39.573Z,12.52
2022-08-16T16:58:53.991Z,12.65
2022-08-16T17:01:59.447Z,12.60
2022-08-16T17:04:59.550Z,12.52
2022-08-16T17:07:49.966Z,13.43
2022-08-16T17:10:46.542Z,13.75
2022-08-16T17:13:49.383Z,14.48
2022-08-16T17:16:41.278Z,13.93
2022-08-16T17:19:40.766Z,13.70
2022-08-16T17:25:41.442Z,12.18
2022-08-16T17:28:58.652Z,13.50
2022-08-16T17:31:43.554Z,13.68
2022-08-16T17:34:33.334Z,12.52
2022-08-16T17:37:48.768Z,16.10
2022-08-16T17:39:28.400Z,13.40
2022-08-16T17:40:58.579Z,13.77
2022-08-16T17:43:48.511Z,13.77
2022-08-16T17:46:41.172Z,13.80
2022-08-16T17:49:42.301Z,12.95
2022-08-16T17:52:32.178Z,12.95
2022-08-16T17:55:30.798Z,13.02
2022-08-16T17:58:22.946Z,14.07
2022-08-16T18:01:14.607Z,13.32
2022-08-16T18:04:09.597Z,13.38
2022-08-16T18:07:00.129Z,12.50
2022-08-16T18:09:49.489Z,12.27
2022-08-16T18:12:51.304Z,13.65
2022-08-16T18:15:45.221Z,14.50
2022-08-16T18:18:35.535Z,16.67
2022-08-16T18:21:43.539Z,16.15
2022-08-16T18:24:33.227Z,16.17
2022-08-16T18:27:26.764Z,14.20
2022-08-16T18:30:19.129Z,13.15
2022-08-16T18:33:09.009Z,13.60
2022-08-16T18:35:59.313Z,12.82
2022-08-16T18:38:48.909Z,11.15
2022-08-16T18:41:39.991Z,11.23
2022-08-16T18:44:33.300Z,11.95
2022-08-16T18:47:24.900Z,12.82
2022-08-16T18:50:14.409Z,13.63
2022-08-16T18:53:07.811Z,13.70
2022-08-16T18:56:00.196Z,14.93
2022-08-16T18:58:50.540Z,14.35
2022-08-16T19:01:40.073Z,13.95
2022-08-16T19:04:55.122Z,13.13
2022-08-16T19:07:39.704Z,13.80
2022-08-16T19:10:31.616Z,12.25
2022-08-16T19:13:24.773Z,12.52
2022-08-16T19:16:16.054Z,12.45
2022-08-16T19:19:06.030Z,12.68
2022-08-16T19:21:55.915Z,13.02
2022-08-16T19:24:45.230Z,14.25
2022-08-16T19:27:35.285Z,12.25
2022-08-16T19:30:25.472Z,12.63
2022-08-16T19:33:15.346Z,13.73
2022-08-16T19:36:04.958Z,13.10
2022-08-16T19:38:55.233Z,13.10
2022-08-16T19:41:53.205Z,12.85
2022-08-16T19:44:46.225Z,10.90
2022-08-16T19:47:35.966Z,11.40
2022-08-16T19:50:35.958Z,11.02
2022-08-16T19:53:28.370Z,10.48
2022-08-16T19:56:18.216Z,11.00
2022-08-16T19:59:40.108Z,10.18
2022-08-16T20:02:25.550Z,11.40
2022-08-16T20:05:35.245Z,11.15
2022-08-16T20:08:25.206Z,12.48
2022-08-16T20:11:14.567Z,12.27
2022-08-16T20:14:04.601Z,12.15
2022-08-16T20:16:55.719Z,13.18
2022-08-16T20:19:46.762Z,12.50
2022-08-16T20:22:52.862Z,13.07
2022-08-16T20:25:49.683Z,12.05
2022-08-16T20:28:54.032Z,12.52
2022-08-16T20:31:44.665Z,11.20
2022-08-16T20:34:34.397Z,12.27
2022-08-16T20:37:24.840Z,11.35
2022-08-16T20:40:33.306Z,9.70
2022-08-16T20:43:24.964Z,10.88
2022-08-16T20:46:14.510Z,10.02
2022-08-16T20:49:05.476Z,8.75
2022-08-16T20:51:59.745Z,8.70
2022-08-16T20:54:49.654Z,8.80
2022-08-16T20:57:39.036Z,8.88
2022-08-16T21:00:30.229Z,8.15
2022-08-16T21:03:19.750Z,7.32
2022-08-16T21:06:09.335Z,7.65
2022-08-16T21:08:59.482Z,7.68
2022-08-16T21:11:50.375Z,7.38
2022-08-16T21:14:40.058Z,6.72
2022-08-16T21:17:30.294Z,6.78
2022-08-16T21:20:20.828Z,6.40
2022-08-16T21:23:12.274Z,6.85
2022-08-16T21:26:05.807Z,6.18
2022-08-16T21:29:00.608Z,5.40
2022-08-16T21:31:49.975Z,5.80
2022-08-16T21:34:40.161Z,5.93
2022-08-16T21:37:29.641Z,5.47
2022-08-16T21:40:19.194Z,5.93
2022-08-16T21:43:21.228Z,4.97
2022-08-16T21:46:11.080Z,7.35
2022-08-16T21:49:01.057Z,5.57
2022-08-16T21:51:50.540Z,6.25
2022-08-16T21:54:40.060Z,5.55
2022-08-16T21:57:35.444Z,5.55
2022-08-16T22:00:26.277Z,5.63
2022-08-16T22:03:17.794Z,4.95
2022-08-16T22:06:13.768Z,6.20
2022-08-16T22:09:05.113Z,6.63
2022-08-16T22:11:54.950Z,6.13
2022-08-16T22:14:44.461Z,6.07
2022-08-16T22:17:34.129Z,6.13
2022-08-16T22:20:29.768Z,5.13
2022-08-16T22:23:23.178Z,5.95
2022-08-16T22:26:13.139Z,6.03
2022-08-16T22:29:06.332Z,6.53
2022-08-16T22:31:56.158Z,7.38
2022-08-16T22:34:45.794Z,7.00
2022-08-16T22:37:35.330Z,8.23
2022-08-16T22:40:24.684Z,7.20
2022-08-16T22:43:14.982Z,8.55
2022-08-16T22:46:04.525Z,7.43
2022-08-16T22:48:55.674Z,8.00
2022-08-16T22:51:45.425Z,8.95
2022-08-16T22:54:45.913Z,7.53
2022-08-16T22:57:39.246Z,7.88
2022-08-16T23:00:32.581Z,7.93
2022-08-16T23:03:23.403Z,6.95
2022-08-16T23:06:14.552Z,8.07
2022-08-16T23:09:04.351Z,6.47
2022-08-16T23:11:54.220Z,5.75
2022-08-16T23:14:43.630Z,6.20
2022-08-16T23:17:33.679Z,5.38
2022-08-16T23:20:28.234Z,4.80
2022-08-16T23:23:21.730Z,4.50
2022-08-16T23:26:43.913Z,4.03
2022-08-16T23:29:26.479Z,4.80
2022-08-16T23:32:16.644Z,4.10
2022-08-16T23:35:06.652Z,3.88
2022-08-16T23:37:56.529Z,3.70
2022-08-16T23:40:46.488Z,3.90
2022-08-16T23:43:41.860Z,3.50
2022-08-16T23:46:33.349Z,3.38
2022-08-16T23:49:57.516Z,3.05
2022-08-16T23:52:53.335Z,3.65
2022-08-16T23:55:45.449Z,3.40
2022-08-16T23:58:39.335Z,3.33
